Aérodrome :
LOGIN :

S'inscrire | Disclaimer

   EN    FR    IT 

 










Légende :    VFR   VFR Marginal   IFR   IFR Intensif   IFR Très Intensif
Visi : 
Plafond : 
>= 8 km
>= 3000ft
5 à 8 km
1000 à 3000 ft
1500m à 5 km
500 à 1000 ft
800 à 1500m
200 à 500 ft
< 800m
< 200 ft
Symboles :   Orages  Brouillard  Fortes neiges  Fortes précipitations  Vent > 20 kt
SIGMETs :   Divers  Orages  Givrage  Turbulence  Onde Orograph.  Cendres Volcan.






- Altitude de l'aérodrome : 242 ft
- Code IATA : DUB


EIDW - Dublin

DERNIER METAR :
  • 150200Z 24011G22KT 200V280 9999 SCT012 SCT100 02/M00 Q0981 NOSIG

METARs EXPIRÉS :
  • 150130Z 24011G21KT 200V290 9999 SCT012 SCT100 02/M00 Q0981 NOSIG
  • 150100Z 24009KT 200V290 9999 SCT012 BKN100 02/M00 Q0981 NOSIG
  • 150030Z 24010KT 200V300 9999 SCT012 BKN100 02/M00 Q0980 NOSIG
  • 150000Z 24012G25KT 200V280 9999 SCT012 BKN100 02/M00 Q0981 NOSIG
  • 142330Z 24007KT 200V280 9999 FEW020 SCT030 BKN100 02/00 Q0981 NOSIG

TAF TAF EIDW
Valide du 15 à 00h jusqu'au 16 à 00h UTC


142300Z 1500/1524 23011KT 9999 FEW020 SCT040
BECMG 1500/1501 24015G25KT
PROB40
TEMPO 1500/1503 24020G32KT
BECMG 1504/1506 24013KT
PROB30
TEMPO 1505/1509 SCT004 BKN007
BECMG 1508/1510 21006KT
BECMG 1512/1514 15006KT
PROB30
TEMPO 1514/1516 -SHRA SCT012 SCT018CB
BECMG 1522/1524 21014KT
PROB30
TEMPO 1522/1524 -SHRA SCT007 BKN010



MET'MAP, la Météo Aéronautique d'un coup d'oeil ! - Copyright ORBIFLY Décembre 2007 - Disclaimer

ORBIFLY MET'MAP TEAM :

Programmation & Développement : Alexandra Zaïnal
Sur une idée originale de : Baudouin d'Aumeries
Assistance à la programmation : Marc-Olivier Méhu
Soutien technique & logistique : Manuel Goepfert

Contact : metmap@orbifly.com




SOURCES & CREDITS :

   NOAA